ePrivacy and GPDR Cookie Consent by Cookie Consent
EmailTwitter


Surface observations / Quebec / CYUL (71627)

Regions: Quebec | Canada | USA | Europe | France | UK | Elsewhere
Station
Display
Info & Location for CYUL (71627) | Help decoding METAR

Weather Conditions observed on 2021/12/05 at 22:00 UTC at MONTREAL INTL A, QB (CYUL)

Sky conditions: overcast.

Temperature: -4.0 Celsius.

Dewpoint: -9.0 Celsius.

Relative Humidity: 68%

Windchill Factor -8.

Winds: Southeast at 11 km/h or 6 knots.

Mean Sea level Pressure: 102.98 kilopascals.

Altimeter Setting (QNH): 102.95 kilopascals or 30.40 inches of mercury.

Horizontal visibility: 15.00 statute miles or 24.00 kilometers.

Height of the Ceiling: 3962 metres ( 13000 feet ).

Coded METAR:

CYUL 052200Z 14006KT 15SM OVC130 M04/M09 A3040 RMK AS8 SLP298=